Time;durP1;ratioP1;P1;durP2;ratioP2;P2;SDS_P1;SDS_P2;PMS_P1;PMS_P2;Temp;Humidity;BMP_temperature;BMP_pressure;BME280_temperature;BME280_humidity;BME280_pressure;Samples;Min_cycle;Max_cycle;Signal;HPM_P1;HPM_P2
2023/12/28 00:03:29;;;;;;;6.72;3.63;;;;;;;15.66;100.00;102147.00;10622011;27;20058;-85
2023/12/28 00:08:54;;;;;;;10.20;3.45;;;;;;;15.61;100.00;102146.91;10633152;27;20065;-85
2023/12/28 00:14:16;;;;;;;11.30;4.55;;;;;;;15.36;100.00;102158.84;10626267;27;20066;-82
2023/12/28 00:19:40;;;;;;;4.63;2.97;;;;;;;15.32;100.00;102148.13;10622781;27;20107;-83
2023/12/28 00:25:03;;;;;;;6.95;2.60;;;;;;;15.27;100.00;102158.69;10593097;27;20117;-82
2023/12/28 00:30:25;;;;;;;10.23;3.58;;;;;;;15.06;100.00;102161.81;10553300;27;20490;-82
2023/12/28 00:35:49;;;;;;;9.57;3.95;;;;;;;14.98;100.00;102163.44;10593733;27;20517;-82
2023/12/28 00:41:12;;;;;;;12.00;3.78;;;;;;;14.93;100.00;102165.09;10628876;27;20054;-81
2023/12/28 00:46:35;;;;;;;14.25;5.00;;;;;;;15.05;100.00;102168.00;10635357;27;20043;-82
2023/12/28 00:51:59;;;;;;;9.98;4.03;;;;;;;15.04;100.00;102170.63;10634594;27;20517;-82
2023/12/28 00:57:21;;;;;;;24.92;11.75;;;;;;;14.97;100.00;102161.63;10629625;27;20081;-82
2023/12/28 01:02:46;;;;;;;10.77;4.07;;;;;;;15.08;100.00;102168.09;10592055;27;20487;-84
2023/12/28 01:08:10;;;;;;;11.57;4.25;;;;;;;14.89;100.00;102168.59;10621101;27;20140;-81
2023/12/28 01:13:33;;;;;;;12.23;4.15;;;;;;;14.61;100.00;102167.09;10618217;27;20404;-82
2023/12/28 01:18:56;;;;;;;13.43;4.95;;;;;;;14.57;100.00;102172.31;10625506;27;20053;-82
2023/12/28 01:24:20;;;;;;;11.70;5.35;;;;;;;14.58;100.00;102174.09;10599372;27;20038;-83
2023/12/28 01:29:43;;;;;;;14.90;3.72;;;;;;;14.49;100.00;102182.78;10619897;27;20059;-82
2023/12/28 01:35:07;;;;;;;6.93;3.28;;;;;;;14.62;100.00;102174.22;10591815;27;20563;-83
2023/12/28 01:40:31;;;;;;;11.00;3.58;;;;;;;14.66;100.00;102184.03;10601307;27;20058;-82
2023/12/28 01:45:54;;;;;;;11.27;4.18;;;;;;;14.55;100.00;102192.63;10601314;27;20047;-82
2023/12/28 01:51:17;;;;;;;9.20;4.22;;;;;;;14.47;100.00;102186.25;10591084;27;20138;-81
2023/12/28 01:56:41;;;;;;;28.90;14.23;;;;;;;14.48;100.00;102186.28;10625883;27;20118;-83
2023/12/28 02:02:04;;;;;;;6.95;2.65;;;;;;;14.61;100.00;102190.13;10600575;27;20134;-83
2023/12/28 02:07:28;;;;;;;9.52;3.22;;;;;;;14.69;100.00;102185.88;10614528;27;20402;-82
2023/12/28 02:12:53;;;;;;;6.47;2.80;;;;;;;15.09;100.00;102172.53;10632726;27;20138;-83
2023/12/28 02:18:21;;;;;;;6.22;3.40;;;;;;;15.51;100.00;102166.22;10633032;27;20106;-82
2023/12/28 02:23:48;;;;;;;6.45;2.65;;;;;;;15.71;100.00;102164.81;10614988;27;20380;-83
2023/12/28 02:29:12;;;;;;;9.00;2.72;;;;;;;15.86;100.00;102161.53;10617251;27;20045;-82
2023/12/28 02:34:42;;;;;;;4.25;2.55;;;;;;;15.75;100.00;102148.03;10603625;27;20051;-83
2023/12/28 02:40:07;;;;;;;9.00;3.58;;;;;;;15.35;100.00;102149.09;10605542;27;20063;-82
2023/12/28 02:45:35;;;;;;;7.68;3.70;;;;;;;15.08;100.00;102157.44;10589478;27;20031;-83
2023/12/28 02:50:58;;;;;;;6.97;2.90;;;;;;;15.24;100.00;102147.97;10576794;28;20105;-83
2023/12/28 02:56:20;;;;;;;8.63;2.90;;;;;;;15.43;100.00;102154.53;10582111;28;20147;-83
2023/12/28 03:01:45;;;;;;;8.68;2.80;;;;;;;15.61;100.00;102157.56;10604727;27;20487;-83
2023/12/28 03:07:09;;;;;;;8.65;3.70;;;;;;;15.53;100.00;102151.22;10628512;27;20058;-84
2023/12/28 03:12:32;;;;;;;13.32;3.67;;;;;;;15.45;100.00;102155.47;10639129;27;20043;-84
2023/12/28 03:17:57;;;;;;;14.20;9.80;;;;;;;15.51;100.00;102150.25;10638730;27;20398;-83
2023/12/28 03:23:19;;;;;;;9.23;5.40;;;;;;;15.46;100.00;102154.59;10596555;27;20570;-82
2023/12/28 03:28:42;;;;;;;9.38;5.93;;;;;;;15.44;100.00;102153.66;10609932;27;20047;-82
2023/12/28 03:34:06;;;;;;;7.13;2.90;;;;;;;15.39;100.00;102161.56;10581429;27;20459;-81
2023/12/28 03:39:29;;;;;;;6.03;3.78;;;;;;;15.71;100.00;102172.81;10584809;27;20059;-81
2023/12/28 03:44:51;;;;;;;11.70;6.38;;;;;;;16.00;100.00;102178.66;10553440;28;20412;-82
2023/12/28 03:50:16;;;;;;;12.20;6.97;;;;;;;16.16;100.00;102185.09;10596269;27;20059;-81
2023/12/28 03:55:38;;;;;;;14.02;7.18;;;;;;;16.19;100.00;102185.16;10594945;27;20498;-81
2023/12/28 04:01:01;;;;;;;10.68;6.88;;;;;;;16.34;100.00;102196.91;10617295;27;20039;-82
2023/12/28 04:06:25;;;;;;;12.32;4.90;;;;;;;16.53;100.00;102205.22;10650209;27;20046;-81
2023/12/28 04:11:48;;;;;;;14.60;12.38;;;;;;;16.78;100.00;102207.38;10597197;27;20035;-81
2023/12/28 04:17:10;;;;;;;19.23;15.25;;;;;;;16.53;100.00;102211.44;10607919;27;20093;-83
2023/12/28 04:22:34;;;;;;;8.80;4.95;;;;;;;16.14;100.00;102208.19;10636855;27;20047;-82
2023/12/28 04:27:57;;;;;;;17.27;8.30;;;;;;;16.11;100.00;102224.09;10643026;27;20490;-82
2023/12/28 04:33:20;;;;;;;10.68;5.45;;;;;;;16.08;100.00;102221.41;10616436;27;20063;-84
2023/12/28 04:38:45;;;;;;;12.55;7.03;;;;;;;16.09;100.00;102226.72;10628694;27;20059;-81
2023/12/28 04:44:07;;;;;;;10.98;5.13;;;;;;;16.25;100.00;102238.53;10614822;27;20065;-83
2023/12/28 04:49:30;;;;;;;13.90;8.88;;;;;;;16.28;100.00;102242.13;10627938;27;20055;-82
2023/12/28 04:54:54;;;;;;;14.75;6.75;;;;;;;16.42;100.00;102239.69;10536813;28;20052;-84
2023/12/28 05:00:18;;;;;;;19.70;8.70;;;;;;;16.43;100.00;102240.59;10597066;27;20053;-84
2023/12/28 05:05:43;;;;;;;9.68;4.68;;;;;;;16.59;100.00;102239.97;10626671;27;20047;-84
2023/12/28 05:11:08;;;;;;;10.07;5.50;;;;;;;16.67;100.00;102251.69;10625458;27;20103;-85
2023/12/28 05:16:32;;;;;;;14.95;4.88;;;;;;;16.62;100.00;102248.94;10595732;27;20050;-85
2023/12/28 05:21:54;;;;;;;12.32;5.78;;;;;;;16.41;100.00;102245.88;10608163;27;20564;-85
2023/12/28 05:27:18;;;;;;;14.45;8.65;;;;;;;16.33;100.00;102248.47;10636781;27;20142;-84
2023/12/28 05:32:41;;;;;;;22.92;10.90;;;;;;;16.27;100.00;102252.81;10620222;27;20092;-85
2023/12/28 05:38:09;;;;;;;17.38;8.68;;;;;;;15.96;100.00;102254.03;10604540;27;20043;-85
2023/12/28 05:43:35;;;;;;;20.73;11.20;;;;;;;15.93;100.00;102262.88;10605707;27;20231;-85
2023/12/28 05:48:58;;;;;;;19.75;12.10;;;;;;;15.92;100.00;102278.81;10638394;27;20045;-85
2023/12/28 05:54:20;;;;;;;22.77;11.95;;;;;;;15.80;100.00;102271.53;10607708;27;20052;-85
2023/12/28 05:59:46;;;;;;;28.73;19.08;;;;;;;15.86;100.00;102284.06;10606481;27;20045;-85
2023/12/28 06:05:09;;;;;;;18.27;12.57;;;;;;;16.01;100.00;102275.44;10630291;27;20514;-83
2023/12/28 06:10:32;;;;;;;15.98;6.55;;;;;;;16.30;100.00;102279.47;10610110;27;20047;-83
2023/12/28 06:15:56;;;;;;;13.32;5.78;;;;;;;16.93;100.00;102287.63;10602153;27;20053;-82
2023/12/28 06:21:18;;;;;;;9.82;5.07;;;;;;;17.21;100.00;102285.31;10631185;27;20054;-83
2023/12/28 06:26:42;;;;;;;19.23;7.55;;;;;;;17.21;100.00;102278.19;10606799;27;20088;-82
2023/12/28 06:32:07;;;;;;;17.50;7.05;;;;;;;17.25;100.00;102277.38;10581722;27;20059;-83
2023/12/28 06:37:30;;;;;;;13.95;6.32;;;;;;;17.72;100.00;102287.75;10636255;27;20047;-83
2023/12/28 06:42:52;;;;;;;10.52;6.22;;;;;;;18.20;100.00;102282.84;10615773;27;20050;-85
2023/12/28 06:48:17;;;;;;;52.90;29.88;;;;;;;18.34;100.00;102285.66;10598425;27;20047;-80
2023/12/28 06:53:40;;;;;;;44.22;24.35;;;;;;;18.50;100.00;102294.72;10591377;27;20062;-86
2023/12/28 06:59:04;;;;;;;35.35;19.23;;;;;;;18.83;100.00;102300.34;10619866;27;20098;-87
2023/12/28 07:04:29;;;;;;;13.50;8.10;;;;;;;19.11;100.00;102306.72;10645892;27;20043;-86
2023/12/28 07:09:51;;;;;;;23.50;14.57;;;;;;;19.13;100.00;102302.28;10614852;27;20071;-82
2023/12/28 07:15:14;;;;;;;14.15;8.05;;;;;;;19.02;100.00;102307.59;10607024;27;20051;-83
2023/12/28 07:20:38;;;;;;;16.15;8.35;;;;;;;18.90;100.00;102317.31;10571673;27;20047;-84
2023/12/28 07:26:01;;;;;;;12.73;7.95;;;;;;;19.34;100.00;102315.78;10589888;27;20049;-85
2023/12/28 07:31:24;;;;;;;25.90;15.65;;;;;;;20.04;100.00;102305.28;10627278;27;20051;-85
2023/12/28 07:36:49;;;;;;;16.25;7.25;;;;;;;19.52;100.00;102316.75;10639185;27;20430;-89
2023/12/28 07:42:12;;;;;;;8.63;5.97;;;;;;;18.89;100.00;102324.47;10597019;27;20052;-89
2023/12/28 07:47:35;;;;;;;12.45;7.50;;;;;;;19.08;100.00;102331.72;10602611;27;20051;-88
2023/12/28 07:53:00;;;;;;;11.55;6.90;;;;;;;21.17;100.00;102316.88;10609137;27;20047;-87
2023/12/28 07:58:22;;;;;;;18.92;9.48;;;;;;;20.45;100.00;102324.13;10591286;27;20078;-91
2023/12/28 08:03:45;;;;;;;16.38;8.95;;;;;;;19.81;100.00;102324.03;10599370;27;20595;-88
2023/12/28 08:09:09;;;;;;;14.00;9.48;;;;;;;19.75;100.00;102326.69;10556289;27;20104;-88
2023/12/28 08:14:32;;;;;;;15.35;6.75;;;;;;;20.05;100.00;102333.00;10608400;27;20047;-88
2023/12/28 08:19:55;;;;;;;10.20;6.47;;;;;;;19.73;100.00;102330.25;10574158;27;20088;-91
2023/12/28 08:25:19;;;;;;;11.20;6.32;;;;;;;20.12;100.00;102332.13;10606117;27;20043;-88
2023/12/28 08:30:42;;;;;;;9.20;4.70;;;;;;;23.71;100.00;102328.28;10589499;27;20043;-90
2023/12/28 08:36:05;;;;;;;12.00;6.13;;;;;;;22.98;100.00;102321.94;10611372;27;20061;-90
2023/12/28 08:41:29;;;;;;;17.58;7.18;;;;;;;22.44;100.00;102312.59;10583393;27;20050;-91
2023/12/28 08:46:53;;;;;;;10.93;6.22;;;;;;;21.73;100.00;102318.41;10593772;27;20054;-88
2023/12/28 08:52:15;;;;;;;15.80;8.02;;;;;;;21.06;100.00;102324.97;10591949;27;20044;-88
2023/12/28 08:57:41;;;;;;;12.75;6.13;;;;;;;21.20;100.00;102316.84;10606726;27;20047;-90
2023/12/28 09:03:05;;;;;;;13.60;6.32;;;;;;;21.77;100.00;102307.66;10592855;27;20063;-89
2023/12/28 09:08:28;;;;;;;9.38;6.40;;;;;;;21.40;100.00;102315.00;10598148;27;20085;-87
2023/12/28 09:13:55;;;;;;;9.85;5.50;;;;;;;21.40;100.00;102306.03;10605097;27;20524;-90
2023/12/28 09:19:18;;;;;;;11.27;5.72;;;;;;;23.94;100.00;102301.00;10591826;27;20057;-89
2023/12/28 09:24:41;;;;;;;10.55;4.53;;;;;;;25.87;100.00;102290.13;10585897;27;20052;-89
2023/12/28 09:30:13;;;;;;;9.70;4.38;;;;;;;24.34;100.00;102280.59;10607699;27;20505;-90
2023/12/28 09:35:37;;;;;;;12.80;4.35;;;;;;;23.45;100.00;102291.75;10606318;27;20108;-89
2023/12/28 09:41:05;;;;;;;12.20;4.80;;;;;;;22.77;100.00;102286.28;10585630;27;20063;-87
2023/12/28 09:46:29;;;;;;;8.68;4.30;;;;;;;24.36;100.00;102278.72;10599704;27;20122;-85
2023/12/28 09:51:51;;;;;;;13.10;4.60;;;;;;;25.40;100.00;102269.53;10577878;27;20510;-89
2023/12/28 09:57:15;;;;;;;14.55;5.88;;;;;;;23.44;100.00;102262.09;10559687;27;20487;-92
2023/12/28 10:02:40;;;;;;;11.77;5.93;;;;;;;22.44;100.00;102255.19;10577575;27;20576;-92
2023/12/28 10:08:05;;;;;;;13.10;5.47;;;;;;;23.98;100.00;102225.38;10553188;27;20050;-91
2023/12/28 10:13:28;;;;;;;7.78;4.18;;;;;;;23.21;100.00;102229.19;10559663;27;20071;-86
2023/12/28 10:18:52;;;;;;;8.80;4.47;;;;;;;23.83;100.00;102214.81;10556789;27;20055;-87
2023/12/28 10:24:15;;;;;;;9.75;3.95;;;;;;;26.83;93.01;102207.28;10556975;28;20059;-85
2023/12/28 10:29:39;;;;;;;10.32;4.03;;;;;;;27.82;77.51;102196.13;10587670;27;20043;-91
2023/12/28 10:35:04;;;;;;;7.72;3.80;;;;;;;25.64;94.69;102212.22;10594802;28;20441;-91
2023/12/28 10:40:27;;;;;;;8.30;4.15;;;;;;;26.26;92.96;102198.94;10576323;28;20060;-91
2023/12/28 10:45:52;;;;;;;6.43;4.60;;;;;;;25.78;93.87;102196.53;10574072;28;20031;-89
2023/12/28 10:51:19;;;;;;;6.80;4.18;;;;;;;25.87;91.28;102194.50;10587162;27;20146;-87
2023/12/28 10:56:47;;;;;;;12.13;4.90;;;;;;;24.07;100.00;102181.16;10585871;28;20047;-91
2023/12/28 11:02:11;;;;;;;9.52;4.43;;;;;;;25.56;94.29;102178.09;10601467;27;20046;-88
2023/12/28 11:07:38;;;;;;;9.40;4.68;;;;;;;25.85;88.84;102159.38;10591740;28;20491;-91
2023/12/28 11:13:03;;;;;;;10.80;5.68;;;;;;;26.78;75.04;102156.88;10587932;27;20144;-92
2023/12/28 11:18:28;;;;;;;8.35;4.20;;;;;;;27.47;69.95;102140.25;10624533;27;20047;-92
2023/12/28 11:23:53;;;;;;;7.93;3.95;;;;;;;26.76;73.73;102146.06;10580410;27;20667;-91
2023/12/28 11:29:20;;;;;;;8.60;3.78;;;;;;;27.10;73.34;102139.66;10601329;27;20047;-90
2023/12/28 11:34:47;;;;;;;8.90;3.63;;;;;;;27.80;65.39;102137.38;10607968;27;20047;-89
2023/12/28 11:40:19;;;;;;;6.75;3.42;;;;;;;26.47;77.44;102114.38;10630093;27;20097;-88
2023/12/28 11:45:49;;;;;;;7.65;4.00;;;;;;;26.65;80.26;102133.75;10610157;27;20117;-89
2023/12/28 11:51:13;;;;;;;6.80;3.72;;;;;;;25.59;85.82;102126.69;10609177;27;20051;-89
2023/12/28 11:56:37;;;;;;;8.93;4.03;;;;;;;24.69;93.46;102125.06;10599033;27;20047;-89
2023/12/28 12:02:00;;;;;;;7.32;4.00;;;;;;;24.55;97.04;102123.53;10595022;27;20047;-88
2023/12/28 12:07:22;;;;;;;12.70;3.97;;;;;;;24.06;99.74;102115.50;10609084;27;20043;-85
2023/12/28 12:12:49;;;;;;;6.40;4.10;;;;;;;23.33;100.00;102113.09;10592956;27;20051;-84
2023/12/28 12:18:13;;;;;;;12.03;4.77;;;;;;;22.87;100.00;102115.59;10604335;27;20061;-89
2023/12/28 12:23:40;;;;;;;11.02;4.25;;;;;;;22.36;100.00;102117.97;10608859;27;20066;-87
2023/12/28 12:29:06;;;;;;;;;;;;;;;22.40;100.00;102119.72;10587326;27;20108;-87
2023/12/28 12:34:30;;;;;;;7.88;3.55;;;;;;;22.10;100.00;102110.19;10582438;27;20299;-85
2023/12/28 12:39:52;;;;;;;10.48;3.92;;;;;;;21.70;100.00;102123.09;10621421;27;20054;-88
2023/12/28 12:45:17;;;;;;;6.60;4.00;;;;;;;21.73;100.00;102114.97;10587657;27;20051;-87
2023/12/28 12:50:39;;;;;;;9.38;3.92;;;;;;;21.62;100.00;102121.34;10592075;27;20049;-87
2023/12/28 12:56:03;;;;;;;8.68;3.92;;;;;;;21.46;100.00;102105.34;10607977;27;20142;-89
2023/12/28 13:01:28;;;;;;;10.98;4.50;;;;;;;21.01;100.00;102109.19;10607428;27;20047;-89
2023/12/28 13:06:51;;;;;;;8.32;3.85;;;;;;;20.91;100.00;102095.84;10590968;27;20130;-84
2023/12/28 13:12:14;;;;;;;7.60;4.40;;;;;;;21.18;100.00;102100.19;10606278;27;20494;-85
2023/12/28 13:17:40;;;;;;;8.38;3.95;;;;;;;21.59;100.00;102099.91;10622371;27;20106;-90
2023/12/28 13:23:03;;;;;;;11.27;4.10;;;;;;;21.84;100.00;102098.78;10594156;27;20080;-89
2023/12/28 13:28:25;;;;;;;8.30;3.63;;;;;;;21.99;100.00;102093.25;10625236;27;20053;-93
2023/12/28 13:33:50;;;;;;;11.35;4.15;;;;;;;21.85;100.00;102093.38;10604334;27;20085;-91
2023/12/28 13:39:14;;;;;;;7.35;3.85;;;;;;;21.59;100.00;102106.16;10633705;27;20146;-92
2023/12/28 13:44:39;;;;;;;7.63;3.80;;;;;;;21.18;100.00;102095.72;10604535;27;20035;-85
2023/12/28 13:50:03;;;;;;;5.75;4.10;;;;;;;21.12;100.00;102114.53;10603753;27;20042;-88
2023/12/28 13:55:25;;;;;;;10.40;3.85;;;;;;;21.48;100.00;102119.66;10642306;27;20058;-90
2023/12/28 14:00:48;;;;;;;10.50;4.70;;;;;;;21.25;100.00;102110.00;10632745;27;20077;-87
2023/12/28 14:06:12;;;;;;;9.30;4.45;;;;;;;21.00;100.00;102115.47;10631645;27;20058;-86
2023/12/28 14:11:38;;;;;;;8.50;4.13;;;;;;;20.60;100.00;102116.59;10588626;27;20219;-90
2023/12/28 14:17:00;;;;;;;8.63;4.50;;;;;;;20.05;100.00;102113.13;10607899;27;20084;-90
2023/12/28 14:22:26;;;;;;;9.57;4.80;;;;;;;19.79;100.00;102110.47;10631943;27;20057;-89
2023/12/28 14:27:49;;;;;;;12.07;4.95;;;;;;;19.67;100.00;102116.75;10630508;27;20039;-90
2023/12/28 14:33:12;;;;;;;8.88;4.80;;;;;;;19.74;100.00;102113.16;10602820;27;20042;-89
2023/12/28 14:38:36;;;;;;;7.22;4.38;;;;;;;19.65;100.00;102117.63;10588750;28;20043;-88
2023/12/28 14:43:59;;;;;;;8.23;4.82;;;;;;;19.52;100.00;102106.00;10637233;27;20066;-91
2023/12/28 14:49:21;;;;;;;13.48;6.00;;;;;;;19.36;100.00;102113.09;10558701;28;20436;-91
2023/12/28 14:54:45;;;;;;;12.60;5.38;;;;;;;18.97;100.00;102107.69;10582669;28;20484;-89
2023/12/28 15:00:09;;;;;;;8.90;4.85;;;;;;;18.58;100.00;102111.09;10597448;27;20097;-89
2023/12/28 15:05:32;;;;;;;10.77;5.03;;;;;;;18.27;100.00;102110.91;10567306;27;20164;-88
2023/12/28 15:10:57;;;;;;;10.50;5.28;;;;;;;18.24;100.00;102115.38;10607014;27;20521;-91
2023/12/28 15:16:21;;;;;;;11.88;6.45;;;;;;;18.17;100.00;102124.22;10640897;27;20049;-91
2023/12/28 15:21:45;;;;;;;18.23;13.30;;;;;;;18.33;100.00;102127.00;10605723;27;20050;-91
2023/12/28 15:27:12;;;;;;;20.45;12.43;;;;;;;18.47;100.00;102126.16;10608602;27;20051;-89
2023/12/28 15:32:35;;;;;;;10.65;7.75;;;;;;;18.12;100.00;102132.19;10608354;27;20079;-84
2023/12/28 15:38:01;;;;;;;16.98;10.55;;;;;;;17.83;100.00;102145.38;10595922;27;20096;-87
2023/12/28 15:43:24;;;;;;;15.10;11.30;;;;;;;17.56;100.00;102142.41;10594165;27;20055;-89
2023/12/28 15:48:47;;;;;;;17.58;12.13;;;;;;;17.24;100.00;102152.78;10594002;27;20137;-91
2023/12/28 15:54:09;;;;;;;59.28;35.35;;;;;;;17.10;100.00;102149.97;10594441;27;20043;-90
2023/12/28 15:59:34;;;;;;;26.75;18.70;;;;;;;17.21;100.00;102149.19;10617716;27;20047;-89
2023/12/28 16:04:57;;;;;;;24.40;12.27;;;;;;;17.09;100.00;102153.50;10607418;27;20043;-90
2023/12/28 16:10:23;;;;;;;16.05;10.18;;;;;;;16.99;100.00;102156.06;10580063;27;20054;-91
2023/12/28 16:15:48;;;;;;;20.83;9.73;;;;;;;16.85;100.00;102157.66;10587912;27;20134;-86
2023/12/28 16:21:12;;;;;;;15.82;9.73;;;;;;;16.75;100.00;102156.66;10636782;27;20406;-84
2023/12/28 16:26:36;;;;;;;17.00;9.70;;;;;;;16.70;100.00;102153.94;10605295;27;20099;-87
2023/12/28 16:32:01;;;;;;;15.38;8.77;;;;;;;16.71;100.00;102169.06;10563174;27;20582;-86
2023/12/28 16:37:24;;;;;;;18.92;10.52;;;;;;;16.62;100.00;102170.69;10594522;27;20070;-86
2023/12/28 16:42:46;;;;;;;30.20;20.23;;;;;;;16.58;100.00;102172.41;10609743;27;20047;-86
2023/12/28 16:48:10;;;;;;;31.83;18.98;;;;;;;16.59;100.00;102170.63;10596663;27;20498;-85
2023/12/28 16:53:33;;;;;;;22.88;16.17;;;;;;;16.51;100.00;102185.63;10592517;27;20054;-84
2023/12/28 16:58:55;;;;;;;32.83;19.25;;;;;;;16.41;100.00;102189.03;10602089;27;20069;-82
2023/12/28 17:04:19;;;;;;;22.88;15.90;;;;;;;16.23;100.00;102192.31;10577893;27;20050;-86
2023/12/28 17:09:44;;;;;;;22.65;14.98;;;;;;;16.09;100.00;102189.44;10582353;27;20066;-84
2023/12/28 17:15:07;;;;;;;12.88;8.77;;;;;;;16.06;100.00;102193.81;10591287;27;20051;-88
2023/12/28 17:20:33;;;;;;;27.17;15.82;;;;;;;16.03;100.00;102192.00;10579406;27;20072;-88
2023/12/28 17:26:25;;;;;;;17.08;11.82;;;;;;;15.87;100.00;102188.19;10612502;27;20040;-89
2023/12/28 17:32:11;;;;;;;17.42;11.23;;;;;;;15.76;100.00;102189.75;10601166;27;20398;-86
2023/12/28 17:37:36;;;;;;;12.23;7.68;;;;;;;15.59;100.00;102199.22;10605004;27;20049;-86
2023/12/28 17:43:02;;;;;;;18.45;12.02;;;;;;;15.61;100.00;102200.16;10621246;27;20059;-88
2023/12/28 17:48:34;;;;;;;52.90;27.58;;;;;;;15.48;100.00;102204.34;10598642;27;20503;-80
2023/12/28 17:53:59;;;;;;;14.85;10.55;;;;;;;15.42;100.00;102209.53;10604746;27;20066;-85
2023/12/28 17:59:23;;;;;;;15.18;6.38;;;;;;;15.48;100.00;102203.44;10587024;27;20081;-83
2023/12/28 18:04:47;;;;;;;16.00;8.75;;;;;;;15.42;100.00;102201.56;10602321;27;20039;-81
2023/12/28 18:10:11;;;;;;;13.10;8.82;;;;;;;15.40;100.00;102208.59;10567053;27;20043;-85
2023/12/28 18:15:34;;;;;;;26.67;18.30;;;;;;;15.37;100.00;102203.22;10613102;27;20049;-83
2023/12/28 18:20:57;;;;;;;41.03;27.42;;;;;;;15.41;100.00;102206.84;10597343;27;20169;-81
2023/12/28 18:26:21;;;;;;;33.60;22.17;;;;;;;15.55;100.00;102194.72;10617468;27;20046;-85
2023/12/28 18:31:44;;;;;;;26.00;18.17;;;;;;;15.51;100.00;102200.81;10584078;27;20043;-83
2023/12/28 18:37:07;;;;;;;22.35;18.25;;;;;;;15.42;100.00;102190.91;10601012;27;20429;-88
2023/12/28 18:42:31;;;;;;;25.45;20.15;;;;;;;15.20;100.00;102202.00;10611467;27;20044;-85
2023/12/28 18:47:53;;;;;;;36.50;22.38;;;;;;;14.87;100.00;102196.88;10606039;27;20050;-84
2023/12/28 18:53:16;;;;;;;15.95;8.73;;;;;;;14.82;100.00;102205.63;10606172;27;20130;-91
2023/12/28 18:58:40;;;;;;;31.63;20.38;;;;;;;14.80;100.00;102208.25;10629800;27;20079;-89
2023/12/28 19:04:03;;;;;;;12.20;7.18;;;;;;;15.18;100.00;102205.47;10636830;27;20497;-83
2023/12/28 19:09:30;;;;;;;16.75;9.20;;;;;;;15.23;100.00;102207.38;10599003;27;20047;-81
2023/12/28 19:14:56;;;;;;;24.40;15.27;;;;;;;15.25;100.00;102205.66;10624855;27;20047;-82
2023/12/28 19:20:20;;;;;;;25.38;16.02;;;;;;;15.18;100.00;102208.16;10631164;27;20136;-87
2023/12/28 19:25:43;;;;;;;18.55;11.35;;;;;;;15.09;100.00;102208.88;10624931;27;20051;-87
2023/12/28 19:31:07;;;;;;;19.05;9.65;;;;;;;14.97;100.00;102212.16;10622034;27;20058;-85
2023/12/28 19:36:30;;;;;;;13.52;7.00;;;;;;;15.01;100.00;102218.47;10621437;27;20047;-86
2023/12/28 19:41:54;;;;;;;14.93;9.75;;;;;;;15.10;100.00;102208.88;10636082;27;20088;-86
2023/12/28 19:47:18;;;;;;;25.88;19.92;;;;;;;14.85;100.00;102206.59;10613626;27;20403;-85
2023/12/28 19:52:42;;;;;;;42.42;23.98;;;;;;;14.48;100.00;102206.66;10618023;27;20056;-85
2023/12/28 19:58:04;;;;;;;43.30;31.75;;;;;;;14.20;100.00;102216.59;10607702;27;20522;-84
2023/12/28 20:03:28;;;;;;;39.53;29.52;;;;;;;14.03;100.00;102215.28;10580280;27;20047;-85
2023/12/28 20:08:51;;;;;;;19.15;13.07;;;;;;;14.08;100.00;102208.31;10608032;27;20591;-85
2023/12/28 20:14:13;;;;;;;24.85;17.23;;;;;;;14.05;100.00;102216.22;10607785;27;20441;-85
2023/12/28 20:19:37;;;;;;;25.23;19.00;;;;;;;14.02;100.00;102226.78;10587747;27;20561;-84
2023/12/28 20:25:02;;;;;;;17.13;13.25;;;;;;;14.25;100.00;102219.34;10605828;27;20046;-83
2023/12/28 20:30:25;;;;;;;33.35;18.92;;;;;;;14.21;100.00;102213.06;10598916;27;20059;-84
2023/12/28 20:35:50;;;;;;;18.67;11.35;;;;;;;13.74;100.00;102217.19;10608788;27;20058;-82
2023/12/28 20:41:16;;;;;;;20.23;8.80;;;;;;;13.61;100.00;102222.13;10590279;27;20066;-82
2023/12/28 20:46:41;;;;;;;16.02;8.15;;;;;;;13.71;100.00;102218.88;10605144;27;20051;-82
2023/12/28 20:52:07;;;;;;;21.95;14.10;;;;;;;13.81;100.00;102226.22;10591209;27;20057;-81
2023/12/28 20:57:30;;;;;;;17.88;12.38;;;;;;;13.57;100.00;102222.06;10598565;27;20051;-81
2023/12/28 21:02:53;;;;;;;15.90;10.60;;;;;;;13.25;100.00;102214.09;10564984;27;20047;-80
2023/12/28 21:08:17;;;;;;;22.33;13.80;;;;;;;12.85;100.00;102212.91;10603406;27;20058;-81
2023/12/28 21:13:40;;;;;;;19.77;13.93;;;;;;;13.02;100.00;102214.28;10605887;27;20058;-81
2023/12/28 21:19:02;;;;;;;18.33;13.43;;;;;;;12.93;100.00;102205.19;10603120;27;20051;-82
2023/12/28 21:24:27;;;;;;;29.15;20.77;;;;;;;12.82;100.00;102198.66;10565655;27;20055;-82
2023/12/28 21:29:50;;;;;;;50.97;44.72;;;;;;;12.67;100.00;102194.69;10605683;27;20043;-82
2023/12/28 21:35:13;;;;;;;52.38;46.67;;;;;;;12.61;100.00;102202.44;10590588;27;20047;-82
2023/12/28 21:40:39;;;;;;;59.75;43.08;;;;;;;12.50;100.00;102195.03;10605566;27;20099;-83
2023/12/28 21:46:02;;;;;;;48.00;34.55;;;;;;;12.43;100.00;102198.34;10604998;27;20406;-84
2023/12/28 21:51:25;;;;;;;73.72;59.90;;;;;;;12.30;100.00;102194.41;10577238;27;20055;-82
2023/12/28 21:56:50;;;;;;;35.15;30.42;;;;;;;12.22;100.00;102180.03;10588608;27;20120;-85
2023/12/28 22:02:13;;;;;;;32.00;27.60;;;;;;;12.24;100.00;102181.88;10589460;27;20533;-83
2023/12/28 22:07:35;;;;;;;30.83;18.35;;;;;;;12.21;100.00;102175.59;10603589;27;20107;-83
2023/12/28 22:13:00;;;;;;;12.40;7.53;;;;;;;12.43;100.00;102177.16;10592747;27;20058;-82
2023/12/28 22:18:22;;;;;;;16.08;9.45;;;;;;;12.44;100.00;102171.00;10601648;27;20137;-82
2023/12/28 22:23:45;;;;;;;15.15;9.02;;;;;;;12.44;100.00;102168.38;10600314;27;20134;-80
2023/12/28 22:29:09;;;;;;;26.83;13.43;;;;;;;12.46;100.00;102167.56;10601082;27;20062;-83
2023/12/28 22:34:32;;;;;;;18.13;9.73;;;;;;;12.70;100.00;102167.41;10601042;27;20047;-81
2023/12/28 22:39:54;;;;;;;16.73;9.93;;;;;;;12.51;100.00;102159.75;10602140;28;20047;-82
2023/12/28 22:45:18;;;;;;;14.25;9.07;;;;;;;12.36;100.00;102160.19;10602019;27;20043;-83
2023/12/28 22:50:40;;;;;;;17.40;9.75;;;;;;;12.96;100.00;102154.88;10597313;27;20573;-83
2023/12/28 22:56:03;;;;;;;15.30;9.02;;;;;;;12.86;100.00;102148.44;10601887;27;20042;-84
2023/12/28 23:01:28;;;;;;;11.00;7.60;;;;;;;12.84;100.00;102146.59;10588194;27;20055;-83
2023/12/28 23:06:51;;;;;;;17.73;10.77;;;;;;;12.91;100.00;102151.22;10615346;27;20071;-83
2023/12/28 23:12:14;;;;;;;11.45;6.90;;;;;;;12.92;100.00;102150.38;10607143;27;20050;-82
2023/12/28 23:17:38;;;;;;;9.98;6.15;;;;;;;12.67;100.00;102135.50;10587210;27;20044;-82
2023/12/28 23:23:01;;;;;;;9.27;5.38;;;;;;;12.94;100.00;102131.00;10611147;27;20075;-82
2023/12/28 23:28:24;;;;;;;10.52;5.50;;;;;;;12.81;100.00;102131.50;10636124;27;20502;-82
2023/12/28 23:33:48;;;;;;;9.77;6.03;;;;;;;12.50;100.00;102129.72;10604692;27;20052;-83
2023/12/28 23:39:11;;;;;;;13.35;5.78;;;;;;;12.62;100.00;102123.88;10635766;27;20051;-82
2023/12/28 23:44:34;;;;;;;11.02;6.78;;;;;;;12.59;100.00;102131.75;10610222;27;20487;-82
2023/12/28 23:49:58;;;;;;;9.40;5.90;;;;;;;12.26;100.00;102129.88;10609735;27;20054;-82
2023/12/28 23:55:21;;;;;;;11.57;9.02;;;;;;;12.08;100.00;102133.72;10594605;27;20437;-81
